createdAt,value
2018-11-11T00:00:51.922Z,3.23
2018-11-11T00:03:23.877Z,3.47
2018-11-11T00:05:56.295Z,3.40
2018-11-11T00:08:29.214Z,3.63
2018-11-11T00:11:01.494Z,3.57
2018-11-11T00:13:34.127Z,3.67
2018-11-11T00:16:07.202Z,3.57
2018-11-11T00:18:39.284Z,3.77
2018-11-11T00:21:11.573Z,3.23
2018-11-11T00:23:44.262Z,3.07
2018-11-11T00:26:16.240Z,3.03
2018-11-11T00:28:48.795Z,3.40
2018-11-11T00:31:21.003Z,2.70
2018-11-11T00:33:54.082Z,2.87
2018-11-11T00:36:26.020Z,2.80
2018-11-11T00:38:57.964Z,2.43
2018-11-11T00:41:31.478Z,2.30
2018-11-11T00:44:03.868Z,2.77
2018-11-11T00:46:35.921Z,2.43
2018-11-11T00:49:08.604Z,2.40
2018-11-11T00:51:40.805Z,2.50
2018-11-11T00:54:16.313Z,2.60
2018-11-11T00:56:48.843Z,2.40
2018-11-11T00:59:20.971Z,2.10
2018-11-11T01:01:54.431Z,2.20
2018-11-11T01:04:26.960Z,2.23
2018-11-11T01:07:00.796Z,2.30
2018-11-11T01:09:34.291Z,2.20
2018-11-11T01:12:07.323Z,2.00
2018-11-11T01:14:41.217Z,1.83
2018-11-11T01:17:14.691Z,2.17
2018-11-11T01:19:47.785Z,2.33
2018-11-11T01:22:20.893Z,1.97
2018-11-11T01:24:55.118Z,2.00
2018-11-11T01:27:28.332Z,2.30
2018-11-11T01:30:01.207Z,2.30
2018-11-11T01:32:35.545Z,1.90
2018-11-11T01:35:11.391Z,1.87
2018-11-11T01:37:44.294Z,1.90
2018-11-11T01:40:17.043Z,2.00
2018-11-11T01:42:50.001Z,2.20
2018-11-11T01:45:22.985Z,2.20
2018-11-11T01:47:56.466Z,1.70
2018-11-11T01:50:29.495Z,2.27
2018-11-11T01:56:04.329Z,1.90
2018-11-11T01:58:38.488Z,2.20
2018-11-11T02:01:12.452Z,2.17
2018-11-11T02:03:46.475Z,2.10
2018-11-11T02:06:19.452Z,2.00
2018-11-11T02:08:53.146Z,2.20
2018-11-11T02:11:26.603Z,2.10
2018-11-11T02:13:59.875Z,2.20
2018-11-11T02:16:33.339Z,1.80
2018-11-11T02:19:06.696Z,2.70
2018-11-11T02:21:40.634Z,1.87
2018-11-11T02:24:14.305Z,1.90
2018-11-11T02:26:47.386Z,1.93
2018-11-11T02:29:20.430Z,2.00
2018-11-11T02:31:53.636Z,1.80
2018-11-11T02:34:26.151Z,1.97
2018-11-11T02:36:59.461Z,1.90
2018-11-11T02:39:32.636Z,2.20
2018-11-11T02:42:06.231Z,2.10
2018-11-11T02:44:38.933Z,2.00
2018-11-11T02:47:11.629Z,1.70
2018-11-11T02:49:45.691Z,2.30
2018-11-11T02:52:19.365Z,1.90
2018-11-11T02:54:52.348Z,2.07
2018-11-11T02:57:24.358Z,2.37
2018-11-11T02:59:57.055Z,1.80
2018-11-11T03:02:30.517Z,1.80
2018-11-11T03:05:04.910Z,2.50
2018-11-11T03:07:38.115Z,2.13
2018-11-11T03:10:11.910Z,1.80
2018-11-11T03:12:45.506Z,2.00
2018-11-11T03:15:18.444Z,1.70
2018-11-11T03:17:51.244Z,1.73
2018-11-11T03:20:23.681Z,1.60
2018-11-11T03:22:56.340Z,2.10
2018-11-11T03:25:29.835Z,2.30
2018-11-11T03:28:03.157Z,2.10
2018-11-11T03:30:35.778Z,2.00
2018-11-11T03:33:08.015Z,1.90
2018-11-11T03:35:41.872Z,1.80
2018-11-11T03:38:15.453Z,1.77
2018-11-11T03:40:49.483Z,2.10
2018-11-11T03:43:21.718Z,1.90
2018-11-11T03:45:54.813Z,2.00
2018-11-11T03:48:28.430Z,2.23
2018-11-11T03:51:00.957Z,1.83
2018-11-11T03:53:34.102Z,1.80
2018-11-11T03:56:06.834Z,2.43
2018-11-11T03:58:40.778Z,1.77
2018-11-11T04:01:14.415Z,1.80
2018-11-11T04:03:47.741Z,1.60
2018-11-11T04:06:20.871Z,2.10
2018-11-11T04:08:53.439Z,2.03
2018-11-11T04:11:26.492Z,2.23
2018-11-11T04:13:58.733Z,2.00
2018-11-11T04:16:31.122Z,2.00
2018-11-11T04:19:03.780Z,1.87
2018-11-11T04:21:36.008Z,1.80
2018-11-11T04:24:09.131Z,2.40
2018-11-11T04:26:41.985Z,1.97
2018-11-11T04:29:13.973Z,2.07
2018-11-11T04:31:47.443Z,1.97
2018-11-11T04:34:20.229Z,1.90
2018-11-11T04:36:52.367Z,1.97
2018-11-11T04:39:25.121Z,1.70
2018-11-11T04:41:57.410Z,2.10
2018-11-11T04:44:29.980Z,1.93
2018-11-11T04:47:01.923Z,1.97
2018-11-11T04:49:34.551Z,2.00
2018-11-11T04:52:07.198Z,1.87
2018-11-11T04:54:39.725Z,1.97
2018-11-11T04:57:12.242Z,1.80
2018-11-11T04:59:45.191Z,2.10
2018-11-11T05:02:17.706Z,2.00
2018-11-11T05:04:51.917Z,1.70
2018-11-11T05:07:24.125Z,1.70
2018-11-11T05:09:56.774Z,1.77
2018-11-11T05:12:28.651Z,2.00
2018-11-11T05:15:02.184Z,1.90
2018-11-11T05:17:35.864Z,2.23
2018-11-11T05:20:09.767Z,1.97
2018-11-11T05:22:43.180Z,1.63
2018-11-11T05:25:16.475Z,1.73
2018-11-11T05:27:50.817Z,1.60
2018-11-11T05:30:22.955Z,1.87
2018-11-11T05:32:56.365Z,1.93
2018-11-11T05:35:28.822Z,1.83
2018-11-11T05:38:01.403Z,1.60
2018-11-11T05:40:34.155Z,1.97
2018-11-11T05:43:06.806Z,1.50
2018-11-11T05:45:39.138Z,1.53
2018-11-11T05:48:11.677Z,1.60
2018-11-11T05:50:44.772Z,1.90
2018-11-11T05:53:17.455Z,1.60
2018-11-11T05:55:49.461Z,1.90
2018-11-11T05:58:22.943Z,2.23
2018-11-11T06:00:55.807Z,1.90
2018-11-11T06:03:28.622Z,1.70
2018-11-11T06:06:00.782Z,1.67
2018-11-11T06:08:32.732Z,1.70
2018-11-11T06:11:04.267Z,1.43
2018-11-11T06:13:36.777Z,1.67
2018-11-11T06:16:09.483Z,1.93
2018-11-11T06:18:43.304Z,1.70
2018-11-11T06:21:16.327Z,1.63
2018-11-11T06:23:48.598Z,1.90
2018-11-11T06:26:20.799Z,1.93
2018-11-11T06:28:53.568Z,1.70
2018-11-11T06:31:25.674Z,2.13
2018-11-11T06:33:56.659Z,2.37
2018-11-11T06:36:27.489Z,1.93
2018-11-11T06:38:58.440Z,2.23
2018-11-11T06:41:29.634Z,1.87
2018-11-11T06:44:00.570Z,1.97
2018-11-11T06:46:31.155Z,2.03
2018-11-11T06:49:01.683Z,2.00
2018-11-11T06:51:32.812Z,2.03
2018-11-11T06:54:03.665Z,2.03
2018-11-11T06:56:34.085Z,1.90
2018-11-11T06:59:05.311Z,1.73
2018-11-11T07:01:36.652Z,2.10
2018-11-11T07:04:07.607Z,1.90
2018-11-11T07:06:38.774Z,2.20
2018-11-11T07:09:09.402Z,1.87
2018-11-11T07:11:46.554Z,1.97
2018-11-11T07:14:17.291Z,1.80
2018-11-11T07:16:51.359Z,1.87
2018-11-11T07:19:22.583Z,1.70
2018-11-11T07:21:53.742Z,1.80
2018-11-11T07:24:26.312Z,2.03
2018-11-11T07:26:58.146Z,2.60
2018-11-11T07:29:28.796Z,1.97
2018-11-11T07:31:59.820Z,1.67
2018-11-11T07:34:30.259Z,1.80
2018-11-11T07:37:05.242Z,2.07
2018-11-11T07:39:35.971Z,2.10
2018-11-11T07:42:06.955Z,2.07
2018-11-11T07:44:37.414Z,1.90
2018-11-11T07:47:08.087Z,1.87
2018-11-11T07:49:40.500Z,1.60
2018-11-11T07:52:11.289Z,1.97
2018-11-11T07:54:42.317Z,1.70
2018-11-11T07:57:13.319Z,1.40
2018-11-11T07:59:44.178Z,1.40
2018-11-11T08:02:15.469Z,1.30
2018-11-11T08:04:47.625Z,1.50
2018-11-11T08:07:19.828Z,1.50
2018-11-11T08:09:51.626Z,1.43
2018-11-11T08:12:23.278Z,1.40
2018-11-11T08:14:55.186Z,1.47
2018-11-11T08:17:26.706Z,1.30
2018-11-11T08:19:59.253Z,1.47
2018-11-11T08:22:31.078Z,1.40
2018-11-11T08:25:02.492Z,1.80
2018-11-11T08:27:33.298Z,1.30
2018-11-11T08:30:06.081Z,1.23
2018-11-11T08:32:37.141Z,1.30
2018-11-11T08:35:08.531Z,1.43
2018-11-11T08:37:39.919Z,1.37
2018-11-11T08:40:11.245Z,1.60
2018-11-11T08:42:42.227Z,1.20
2018-11-11T08:45:14.207Z,1.30
2018-11-11T08:47:46.128Z,1.40
2018-11-11T08:50:16.773Z,1.47
2018-11-11T08:52:47.708Z,1.73
2018-11-11T08:55:18.466Z,2.00
2018-11-11T08:57:50.518Z,2.30
2018-11-11T09:00:22.069Z,2.37
2018-11-11T09:02:57.203Z,2.77
2018-11-11T09:05:27.698Z,2.10
2018-11-11T09:07:58.556Z,2.20
2018-11-11T09:10:29.398Z,2.60
2018-11-11T09:12:59.673Z,3.30
2018-11-11T09:15:36.360Z,5.07
2018-11-11T09:18:07.820Z,4.80
2018-11-11T09:20:38.377Z,1.30
2018-11-11T09:23:14.166Z,1.37
2018-11-11T09:25:46.049Z,1.00
2018-11-11T09:28:16.350Z,1.07
2018-11-11T09:30:46.838Z,1.10
2018-11-11T09:33:17.422Z,0.90
2018-11-11T09:35:48.286Z,1.07
2018-11-11T09:38:18.824Z,1.30
2018-11-11T09:40:49.311Z,1.33
2018-11-11T09:43:19.754Z,1.20
2018-11-11T09:45:51.943Z,1.10
2018-11-11T09:48:22.553Z,1.37
2018-11-11T09:50:58.761Z,1.70
2018-11-11T09:53:29.294Z,1.03
2018-11-11T09:56:01.196Z,1.37
2018-11-11T09:58:31.756Z,1.37
2018-11-11T10:01:02.617Z,1.20
2018-11-11T10:03:42.550Z,0.80
2018-11-11T10:07:17.309Z,1.27
2018-11-11T10:09:54.792Z,1.37
2018-11-11T10:12:29.633Z,1.20
2018-11-11T10:15:22.926Z,2.60
2018-11-11T10:20:05.356Z,2.67
2018-11-11T10:23:44.547Z,2.37
2018-11-11T10:26:23.148Z,1.10
2018-11-11T10:29:30.247Z,1.10
2018-11-11T10:32:11.274Z,1.10
2018-11-11T10:34:48.827Z,1.13
2018-11-11T10:37:27.573Z,1.33
2018-11-11T10:40:05.205Z,1.33
2018-11-11T10:43:01.380Z,1.33
2018-11-11T10:46:07.536Z,1.50
2018-11-11T10:48:41.695Z,1.30
2018-11-11T10:51:12.167Z,1.30
2018-11-11T10:53:43.733Z,1.13
2018-11-11T10:56:14.593Z,1.13
2018-11-11T10:58:45.297Z,1.03
2018-11-11T11:01:23.010Z,1.17
2018-11-11T11:03:53.888Z,1.40
2018-11-11T11:06:29.469Z,1.40
2018-11-11T11:09:05.894Z,1.50
2018-11-11T11:11:37.734Z,1.47
2018-11-11T11:14:08.403Z,1.20
2018-11-11T11:16:38.859Z,1.27
2018-11-11T11:19:11.813Z,1.30
2018-11-11T11:21:42.963Z,1.10
2018-11-11T11:24:13.353Z,1.40
2018-11-11T11:26:45.116Z,1.50
2018-11-11T11:29:15.701Z,1.30
2018-11-11T11:31:46.449Z,1.27
2018-11-11T11:34:17.136Z,1.50
2018-11-11T11:36:47.978Z,1.40
2018-11-11T11:39:18.211Z,1.40
2018-11-11T11:41:48.950Z,1.47
2018-11-11T11:44:19.659Z,1.67
2018-11-11T11:46:50.706Z,1.40
2018-11-11T11:49:21.294Z,1.50
2018-11-11T11:51:51.741Z,1.90
2018-11-11T11:54:22.516Z,1.60
2018-11-11T11:56:53.202Z,2.00
2018-11-11T11:59:24.166Z,1.27
2018-11-11T12:01:54.650Z,1.63
2018-11-11T12:04:28.019Z,1.40
2018-11-11T12:06:58.782Z,1.80
2018-11-11T12:09:29.203Z,1.83
2018-11-11T12:11:59.718Z,1.67
2018-11-11T12:14:34.640Z,1.73
2018-11-11T12:17:06.102Z,1.73
2018-11-11T12:19:36.916Z,1.50
2018-11-11T12:22:07.454Z,1.57
2018-11-11T12:24:38.100Z,1.60
2018-11-11T12:27:10.722Z,1.50
2018-11-11T12:29:41.127Z,1.73
2018-11-11T12:32:12.893Z,1.70
2018-11-11T12:34:43.455Z,1.90
2018-11-11T12:37:15.653Z,1.90
2018-11-11T12:39:46.850Z,2.03
2018-11-11T12:42:16.961Z,1.80
2018-11-11T12:44:47.470Z,1.97
2018-11-11T12:47:18.397Z,1.50
2018-11-11T12:49:50.824Z,1.60
2018-11-11T12:52:23.226Z,1.60
2018-11-11T12:54:54.121Z,1.80
2018-11-11T12:57:25.164Z,1.57
2018-11-11T12:59:56.646Z,1.60
2018-11-11T13:02:27.246Z,1.83
2018-11-11T13:05:00.125Z,2.00
2018-11-11T13:07:30.763Z,1.97
2018-11-11T13:10:01.489Z,2.07
2018-11-11T13:12:32.505Z,2.30
2018-11-11T13:15:03.171Z,1.90
2018-11-11T13:17:34.447Z,2.03
2018-11-11T13:20:05.229Z,2.10
2018-11-11T13:22:36.787Z,1.87
2018-11-11T13:25:09.098Z,2.00
2018-11-11T13:27:40.608Z,2.07
2018-11-11T13:30:14.451Z,2.40
2018-11-11T13:32:46.433Z,1.80
2018-11-11T13:35:18.333Z,2.37
2018-11-11T13:37:49.320Z,2.57
2018-11-11T13:40:21.687Z,2.10
2018-11-11T13:42:53.246Z,2.80
2018-11-11T13:45:24.977Z,2.43
2018-11-11T13:47:57.252Z,2.17
2018-11-11T13:50:28.709Z,1.87
2018-11-11T13:53:00.474Z,2.00
2018-11-11T13:55:32.036Z,1.47
2018-11-11T13:58:03.756Z,1.60
2018-11-11T14:00:35.614Z,1.53
2018-11-11T14:03:06.602Z,1.33
2018-11-11T14:05:38.506Z,1.73
2018-11-11T14:08:10.416Z,1.83
2018-11-11T14:10:41.417Z,2.33
2018-11-11T14:13:13.702Z,1.60
2018-11-11T14:15:46.019Z,1.47
2018-11-11T14:18:20.262Z,1.53
2018-11-11T14:20:51.672Z,1.80
2018-11-11T14:23:23.161Z,1.80
2018-11-11T14:25:54.747Z,1.53
2018-11-11T14:28:26.332Z,2.17
2018-11-11T14:30:57.354Z,1.33
2018-11-11T14:33:29.455Z,1.27
2018-11-11T14:36:02.102Z,1.50
2018-11-11T14:38:33.412Z,1.20
2018-11-11T14:41:04.359Z,1.20
2018-11-11T14:43:34.907Z,1.60
2018-11-11T14:46:10.907Z,1.30
2018-11-11T14:48:41.366Z,1.40
2018-11-11T14:51:16.080Z,1.50
2018-11-11T14:53:47.315Z,1.80
2018-11-11T14:56:29.621Z,1.40
2018-11-11T14:59:00.874Z,1.37
2018-11-11T15:01:31.947Z,1.77
2018-11-11T15:04:02.752Z,3.17
2018-11-11T15:06:33.894Z,2.70
2018-11-11T15:09:07.278Z,2.33
2018-11-11T15:11:47.123Z,1.70
2018-11-11T15:14:21.713Z,2.10
2018-11-11T15:16:52.546Z,2.20
2018-11-11T15:19:36.992Z,1.73
2018-11-11T15:22:08.660Z,2.20
2018-11-11T15:24:40.108Z,2.43
2018-11-11T15:27:11.146Z,2.20
2018-11-11T15:29:42.122Z,1.90
2018-11-11T15:32:12.842Z,2.90
2018-11-11T15:34:53.084Z,3.40
2018-11-11T15:37:23.456Z,3.03
2018-11-11T15:40:01.493Z,2.63
2018-11-11T15:42:32.676Z,3.77
2018-11-11T15:45:03.346Z,3.10
2018-11-11T15:47:34.036Z,3.10
2018-11-11T15:50:06.834Z,3.40
2018-11-11T15:52:38.177Z,2.27
2018-11-11T15:55:11.558Z,2.13
2018-11-11T15:57:43.460Z,2.13
2018-11-11T16:00:18.524Z,2.60
2018-11-11T16:02:50.054Z,2.17
2018-11-11T16:05:21.983Z,2.37
2018-11-11T16:07:54.087Z,2.00
2018-11-11T16:10:26.813Z,2.80
2018-11-11T16:12:58.401Z,2.70
2018-11-11T16:15:34.295Z,2.37
2018-11-11T16:18:07.660Z,2.90
2018-11-11T16:20:38.811Z,2.90
2018-11-11T16:23:10.574Z,2.73
2018-11-11T16:25:42.007Z,2.60
2018-11-11T16:28:13.043Z,2.37
2018-11-11T16:30:43.944Z,2.90
2018-11-11T16:33:15.531Z,2.20
2018-11-11T16:35:46.404Z,2.50
2018-11-11T16:38:17.729Z,2.87
2018-11-11T16:40:48.879Z,2.83
2018-11-11T16:43:20.096Z,2.37
2018-11-11T16:45:50.900Z,2.50
2018-11-11T16:48:21.930Z,2.33
2018-11-11T16:50:54.200Z,2.67
2018-11-11T16:53:25.720Z,2.77
2018-11-11T16:55:56.879Z,2.83
2018-11-11T16:58:35.854Z,2.17
2018-11-11T17:01:06.902Z,2.40
2018-11-11T17:03:38.116Z,2.47
2018-11-11T17:06:09.239Z,2.50
2018-11-11T17:08:40.592Z,2.40
2018-11-11T17:11:11.735Z,2.63
2018-11-11T17:13:42.728Z,3.00
2018-11-11T17:16:14.063Z,2.30
2018-11-11T17:18:45.188Z,2.20
2018-11-11T17:21:20.251Z,1.90
2018-11-11T17:23:51.392Z,2.10
2018-11-11T17:26:21.944Z,1.80
2018-11-11T17:28:53.139Z,1.80
2018-11-11T17:31:24.660Z,1.90
2018-11-11T17:34:01.708Z,1.70
2018-11-11T17:36:33.095Z,1.70
2018-11-11T17:39:04.266Z,1.87
2018-11-11T17:41:34.802Z,1.97
2018-11-11T17:44:07.094Z,2.10
2018-11-11T17:46:37.823Z,2.03
2018-11-11T17:49:10.209Z,2.40
2018-11-11T17:51:40.792Z,2.10
2018-11-11T17:54:11.909Z,2.60
2018-11-11T17:56:42.909Z,2.33
2018-11-11T17:59:13.636Z,2.47
2018-11-11T18:01:44.164Z,2.90
2018-11-11T18:04:15.025Z,2.73
2018-11-11T18:06:46.324Z,2.67
2018-11-11T18:09:17.575Z,2.87
2018-11-11T18:11:49.054Z,2.70
2018-11-11T18:14:20.663Z,2.63
2018-11-11T18:16:52.103Z,2.50
2018-11-11T18:19:24.338Z,2.90
2018-11-11T18:21:56.901Z,2.47
2018-11-11T18:24:27.789Z,2.90
2018-11-11T18:26:59.399Z,2.80
2018-11-11T18:29:30.945Z,2.67
2018-11-11T18:32:09.690Z,2.80
2018-11-11T18:34:40.763Z,3.00
2018-11-11T18:37:12.339Z,2.83
2018-11-11T18:39:45.221Z,2.33
2018-11-11T18:42:16.342Z,2.87
2018-11-11T18:44:47.653Z,3.20
2018-11-11T18:47:18.929Z,3.07
2018-11-11T18:49:50.153Z,3.10
2018-11-11T18:52:21.446Z,3.17
2018-11-11T18:54:53.214Z,2.97
2018-11-11T18:57:25.092Z,3.07
2018-11-11T18:59:56.247Z,3.07
2018-11-11T19:02:27.407Z,3.37
2018-11-11T19:04:58.456Z,3.20
2018-11-11T19:07:30.444Z,3.07
2018-11-11T19:10:09.124Z,3.33
2018-11-11T19:12:41.449Z,3.37
2018-11-11T19:15:14.076Z,2.80
2018-11-11T19:17:47.917Z,3.20
2018-11-11T19:20:20.093Z,3.10
2018-11-11T19:22:51.776Z,3.17
2018-11-11T19:25:24.581Z,3.00
2018-11-11T19:27:56.279Z,3.40
2018-11-11T19:30:27.641Z,3.67
2018-11-11T19:33:02.948Z,3.17
2018-11-11T19:35:34.420Z,3.00
2018-11-11T19:38:05.939Z,2.53
2018-11-11T19:40:38.444Z,3.23
2018-11-11T19:43:09.306Z,2.60
2018-11-11T19:45:40.579Z,2.70
2018-11-11T19:48:12.460Z,2.33
2018-11-11T19:50:44.749Z,2.10
2018-11-11T19:53:17.002Z,1.87
2018-11-11T19:55:52.686Z,1.90
2018-11-11T19:58:26.483Z,1.93
2018-11-11T20:00:59.101Z,2.13
2018-11-11T20:03:31.584Z,2.03
2018-11-11T20:06:03.757Z,2.00
2018-11-11T20:08:36.536Z,2.13
2018-11-11T20:11:09.148Z,2.07
2018-11-11T20:13:41.658Z,2.10
2018-11-11T20:16:21.056Z,1.87
2018-11-11T20:18:54.021Z,2.00
2018-11-11T20:21:26.290Z,2.20
2018-11-11T20:23:57.952Z,1.83
2018-11-11T20:26:29.693Z,1.77
2018-11-11T20:29:01.290Z,2.00
2018-11-11T20:31:33.199Z,1.80
2018-11-11T20:34:05.366Z,1.60
2018-11-11T20:36:37.705Z,1.63
2018-11-11T20:39:12.079Z,1.73
2018-11-11T20:41:44.671Z,1.90
2018-11-11T20:44:16.329Z,1.57
2018-11-11T20:46:48.998Z,1.67
2018-11-11T20:49:21.153Z,1.90
2018-11-11T20:51:53.526Z,1.33
2018-11-11T20:54:26.135Z,1.80
2018-11-11T20:56:58.544Z,1.87
2018-11-11T20:59:30.801Z,1.73
2018-11-11T21:02:03.326Z,2.00
2018-11-11T21:04:35.708Z,2.03
2018-11-11T21:07:08.827Z,2.13
2018-11-11T21:09:42.031Z,2.50
2018-11-11T21:12:13.838Z,3.07
2018-11-11T21:14:47.531Z,2.43
2018-11-11T21:17:19.997Z,2.90
2018-11-11T21:19:53.121Z,2.73
2018-11-11T21:22:25.340Z,2.10
2018-11-11T21:24:58.133Z,3.10
2018-11-11T21:27:30.218Z,2.13
2018-11-11T21:30:01.681Z,2.77
2018-11-11T21:32:34.094Z,2.90
2018-11-11T21:35:06.443Z,2.97
2018-11-11T21:37:38.524Z,2.60
2018-11-11T21:40:13.953Z,2.70
2018-11-11T21:42:47.530Z,2.47
2018-11-11T21:45:21.290Z,3.00
2018-11-11T21:47:53.678Z,3.10
2018-11-11T21:50:27.107Z,2.73
2018-11-11T21:53:28.466Z,2.93
2018-11-11T21:56:00.747Z,3.20
2018-11-11T21:58:33.582Z,3.40
2018-11-11T22:01:05.829Z,3.10
2018-11-11T22:03:39.041Z,3.10
2018-11-11T22:06:10.447Z,3.27
2018-11-11T22:08:43.817Z,3.17
2018-11-11T22:11:16.156Z,3.00
2018-11-11T22:13:48.754Z,3.33
2018-11-11T22:16:21.132Z,2.90
2018-11-11T22:18:54.483Z,3.00
2018-11-11T22:21:26.656Z,3.07
2018-11-11T22:23:59.000Z,2.87
2018-11-11T22:26:30.891Z,2.40
2018-11-11T22:29:03.664Z,2.73
2018-11-11T22:31:35.432Z,3.07
2018-11-11T22:34:07.779Z,2.53
2018-11-11T22:36:40.108Z,2.37
2018-11-11T22:39:13.425Z,2.17
2018-11-11T22:41:46.164Z,2.23
2018-11-11T22:44:18.980Z,2.20
2018-11-11T22:46:51.183Z,2.20
2018-11-11T22:49:22.717Z,2.10
2018-11-11T22:51:54.397Z,1.63
2018-11-11T22:54:26.267Z,2.00
2018-11-11T22:56:58.070Z,2.10
2018-11-11T22:59:29.860Z,2.37
2018-11-11T23:02:01.302Z,2.37
2018-11-11T23:04:33.235Z,2.63
2018-11-11T23:07:05.238Z,2.50
2018-11-11T23:09:37.273Z,2.90
2018-11-11T23:12:08.572Z,2.90
2018-11-11T23:14:41.334Z,3.37
2018-11-11T23:17:12.903Z,2.63
2018-11-11T23:19:44.602Z,2.80
2018-11-11T23:22:16.248Z,2.80
2018-11-11T23:24:48.492Z,2.93
2018-11-11T23:27:21.766Z,2.90
2018-11-11T23:29:53.893Z,2.93
2018-11-11T23:32:25.367Z,2.80
2018-11-11T23:34:56.999Z,2.90
2018-11-11T23:37:28.916Z,3.20
2018-11-11T23:40:00.514Z,3.17
2018-11-11T23:42:32.080Z,3.03
2018-11-11T23:45:04.004Z,2.90
2018-11-11T23:47:35.457Z,3.23
2018-11-11T23:50:08.936Z,3.27
2018-11-11T23:52:40.904Z,3.23
2018-11-11T23:55:14.014Z,2.70
2018-11-11T23:57:46.137Z,2.77
